Amherst, Ohio
Current Conditions -  °F | °C
As of 11:53 AM on Friday 21 Nov 2014 (Local Time) from KLPR Reporting Station
Overcast Overcast  
Wind Chill: -11°   Ceiling: 3800
Heat Index: -5°   Visibility: 9mi
Dew Point: -11°   Wind: 9mph
Humidity: 65%   Direction: 260°W
Pressure: 30.49"   Gusts: NA
Location:  41.41°N, 82.24°W
Report Text: KLPR 211653Z AUTO 26008KT 9SM FEW029 OVC038 M05/M11 A3049 RMK AO2 SNB06E48 SLP338 P0000 T10501106 TSNO
Loading
Personal Weather Stations






























Interactive Weather Map New forecast layout! Learn more

10-Day Weather Forecast

Advertisements
Track Severe Weather on mobile